TimeEDT,TemperatureF,Dew PointF,Humidity,Sea Level PressureIn,VisibilityMPH,Wind Direction,Wind SpeedMPH,Gust SpeedMPH,PrecipitationIn,Events,Conditions,WindDirDegrees,DateUTC
12:53 AM,82.0,73.9,76,29.89,10.0,ESE,10.4,-,N/A,,Clear,110,2013-09-13 04:53:00
1:53 AM,82.0,73.9,76,29.88,10.0,ESE,8.1,-,N/A,,Clear,110,2013-09-13 05:53:00
2:53 AM,82.0,73.9,76,29.88,10.0,ESE,6.9,-,N/A,,Clear,110,2013-09-13 06:53:00
3:53 AM,81.0,73.9,79,29.86,10.0,East,5.8,-,N/A,,Clear,100,2013-09-13 07:53:00
4:53 AM,81.0,73.0,77,29.86,10.0,ESE,6.9,-,N/A,,Clear,110,2013-09-13 08:53:00
5:53 AM,81.0,72.0,74,29.87,10.0,SE,5.8,-,N/A,,Clear,130,2013-09-13 09:53:00
6:53 AM,81.0,73.0,77,29.89,10.0,East,4.6,-,N/A,,Clear,100,2013-09-13 10:53:00
7:53 AM,81.0,73.9,79,29.90,10.0,East,3.5,-,N/A,,Partly Cloudy,90,2013-09-13 11:53:00
8:53 AM,82.0,75.9,82,29.90,10.0,Calm,Calm,-,N/A,,Scattered Clouds,0,2013-09-13 12:53:00
9:53 AM,84.0,75.0,74,29.91,10.0,Calm,Calm,-,N/A,,Scattered Clouds,0,2013-09-13 13:53:00
10:53 AM,86.0,73.9,67,29.91,10.0,East,9.2,-,N/A,,Clear,100,2013-09-13 14:53:00
11:53 AM,86.0,73.0,65,29.91,10.0,ESE,9.2,-,N/A,,Clear,110,2013-09-13 15:53:00
12:53 PM,86.0,75.0,70,29.90,10.0,ESE,9.2,-,N/A,,Clear,120,2013-09-13 16:53:00
1:53 PM,86.0,75.0,70,29.88,10.0,SE,5.8,-,N/A,,Clear,130,2013-09-13 17:53:00
2:53 PM,87.1,75.0,67,29.87,10.0,ESE,5.8,-,N/A,,Clear,120,2013-09-13 18:53:00
3:53 PM,86.0,73.9,67,29.84,10.0,East,6.9,-,N/A,,Clear,100,2013-09-13 19:53:00
4:53 PM,86.0,73.9,67,29.83,10.0,SE,6.9,-,N/A,,Clear,130,2013-09-13 20:53:00
5:53 PM,84.0,73.9,72,29.82,10.0,SE,8.1,-,N/A,,Clear,130,2013-09-13 21:53:00
6:53 PM,84.0,73.0,69,29.83,10.0,East,5.8,-,N/A,,Clear,90,2013-09-13 22:53:00
7:53 PM,82.9,73.0,72,29.84,10.0,East,3.5,-,N/A,,Clear,80,2013-09-13 23:53:00
8:53 PM,82.0,73.9,76,29.85,10.0,East,5.8,-,N/A,,Clear,80,2013-09-14 00:53:00
9:53 PM,82.0,75.0,79,29.87,10.0,East,4.6,-,N/A,,Clear,80,2013-09-14 01:53:00
10:53 PM,82.0,75.0,79,29.88,10.0,East,6.9,-,N/A,,Clear,80,2013-09-14 02:53:00
11:53 PM,82.0,73.9,76,29.88,10.0,East,8.1,-,N/A,,Partly Cloudy,100,2013-09-14 03:53:00